createdAt,value
2018-07-05T00:01:04.743Z,2.30
2018-07-05T00:03:58.140Z,2.05
2018-07-05T00:06:51.300Z,2.10
2018-07-05T00:09:44.617Z,2.30
2018-07-05T00:12:37.819Z,1.75
2018-07-05T00:15:31.124Z,2.60
2018-07-05T00:18:24.476Z,1.82
2018-07-05T00:21:17.802Z,2.30
2018-07-05T00:24:10.888Z,2.20
2018-07-05T00:27:03.997Z,2.10
2018-07-05T00:29:57.230Z,1.90
2018-07-05T00:32:50.679Z,1.95
2018-07-05T00:35:43.995Z,2.20
2018-07-05T00:38:37.177Z,2.20
2018-07-05T00:41:30.304Z,2.52
2018-07-05T00:44:23.617Z,2.05
2018-07-05T00:47:16.740Z,1.95
2018-07-05T00:50:10.145Z,2.20
2018-07-05T00:53:04.345Z,2.02
2018-07-05T00:55:57.734Z,1.95
2018-07-05T00:58:51.226Z,1.85
2018-07-05T01:01:44.527Z,2.10
2018-07-05T01:04:37.809Z,1.87
2018-07-05T01:07:31.149Z,1.95
2018-07-05T01:10:24.382Z,2.10
2018-07-05T01:13:17.544Z,1.87
2018-07-05T01:16:10.980Z,2.00
2018-07-05T01:19:04.296Z,2.05
2018-07-05T01:21:57.466Z,2.10
2018-07-05T01:24:50.531Z,1.77
2018-07-05T01:27:43.722Z,1.80
2018-07-05T01:30:36.899Z,1.80
2018-07-05T01:33:30.173Z,1.80
2018-07-05T01:36:23.553Z,1.90
2018-07-05T01:39:16.734Z,2.22
2018-07-05T01:42:10.026Z,2.27
2018-07-05T01:45:03.382Z,2.25
2018-07-05T01:50:28.322Z,2.60
2018-07-05T01:53:21.629Z,3.02
2018-07-05T01:56:14.967Z,3.00
2018-07-05T01:59:08.343Z,2.75
2018-07-05T02:02:01.403Z,2.47
2018-07-05T02:04:54.593Z,2.35
2018-07-05T02:07:48.070Z,2.50
2018-07-05T02:10:41.542Z,2.20
2018-07-05T02:13:34.716Z,2.90
2018-07-05T02:16:27.790Z,3.55
2018-07-05T02:19:20.892Z,2.90
2018-07-05T02:22:14.278Z,3.22
2018-07-05T02:25:07.771Z,2.85
2018-07-05T02:28:00.966Z,3.40
2018-07-05T02:30:54.339Z,2.80
2018-07-05T02:33:47.718Z,3.10
2018-07-05T02:36:40.994Z,3.47
2018-07-05T02:39:39.380Z,3.20
2018-07-05T02:42:32.528Z,3.02
2018-07-05T02:45:25.899Z,2.50
2018-07-05T02:48:19.173Z,2.85
2018-07-05T02:51:12.343Z,3.00
2018-07-05T02:54:05.504Z,3.40
2018-07-05T02:56:58.662Z,2.75
2018-07-05T02:59:52.035Z,2.33
2018-07-05T03:02:44.929Z,2.67
2018-07-05T03:05:38.457Z,3.35
2018-07-05T03:08:31.723Z,3.67
2018-07-05T03:11:24.874Z,2.83
2018-07-05T03:14:17.936Z,3.50
2018-07-05T03:17:11.092Z,3.20
2018-07-05T03:20:04.163Z,3.35
2018-07-05T03:22:57.528Z,2.52
2018-07-05T03:25:50.587Z,2.65
2018-07-05T03:28:43.954Z,3.37
2018-07-05T03:31:37.014Z,3.58
2018-07-05T03:34:30.114Z,3.10
2018-07-05T03:37:23.741Z,2.92
2018-07-05T03:40:17.003Z,2.52
2018-07-05T03:43:10.475Z,2.87
2018-07-05T03:46:03.738Z,3.37
2018-07-05T03:48:57.103Z,2.80
2018-07-05T03:51:50.263Z,3.12
2018-07-05T03:54:43.336Z,3.10
2018-07-05T03:57:36.583Z,2.60
2018-07-05T04:00:29.701Z,3.17
2018-07-05T04:03:23.213Z,3.08
2018-07-05T04:06:16.377Z,3.50
2018-07-05T04:09:09.852Z,2.60
2018-07-05T04:12:03.108Z,2.92
2018-07-05T04:14:56.374Z,2.75
2018-07-05T04:17:49.445Z,2.98
2018-07-05T04:20:42.670Z,3.12
2018-07-05T04:23:36.057Z,2.20
2018-07-05T04:26:29.316Z,2.65
2018-07-05T04:29:22.483Z,2.83
2018-07-05T04:32:15.809Z,2.70
2018-07-05T04:35:09.103Z,2.33
2018-07-05T04:38:02.156Z,2.77
2018-07-05T04:40:55.217Z,2.70
2018-07-05T04:43:48.373Z,3.27
2018-07-05T04:46:41.433Z,2.50
2018-07-05T04:49:34.573Z,2.60
2018-07-05T04:52:27.901Z,2.80
2018-07-05T04:55:21.116Z,3.15
2018-07-05T04:58:14.375Z,3.20
2018-07-05T05:01:07.636Z,2.33
2018-07-05T05:04:01.008Z,2.60
2018-07-05T05:06:54.173Z,2.25
2018-07-05T05:09:47.627Z,2.20
2018-07-05T05:12:41.217Z,2.90
2018-07-05T05:15:34.600Z,2.90
2018-07-05T05:18:27.924Z,2.75
2018-07-05T05:21:20.878Z,3.08
2018-07-05T05:24:13.902Z,2.98
2018-07-05T05:27:06.913Z,2.60
2018-07-05T05:29:59.861Z,2.60
2018-07-05T05:32:53.009Z,3.25
2018-07-05T05:35:46.573Z,2.83
2018-07-05T05:38:39.627Z,2.95
2018-07-05T05:41:32.661Z,3.30
2018-07-05T05:44:26.050Z,2.65
2018-07-05T05:47:19.411Z,2.67
2018-07-05T05:50:12.681Z,2.45
2018-07-05T05:53:05.670Z,2.60
2018-07-05T05:55:59.095Z,2.47
2018-07-05T05:58:52.262Z,2.58
2018-07-05T06:01:45.865Z,3.08
2018-07-05T06:04:39.102Z,2.90
2018-07-05T06:07:32.134Z,2.53
2018-07-05T06:10:25.626Z,2.90
2018-07-05T06:13:18.969Z,2.60
2018-07-05T06:16:12.026Z,2.57
2018-07-05T06:19:05.392Z,2.80
2018-07-05T06:21:58.518Z,4.05
2018-07-05T06:24:51.800Z,2.22
2018-07-05T06:27:44.866Z,2.62
2018-07-05T06:30:38.031Z,2.47
2018-07-05T06:33:31.179Z,2.30
2018-07-05T06:36:24.565Z,2.35
2018-07-05T06:39:17.709Z,2.27
2018-07-05T06:46:07.513Z,2.60
2018-07-05T06:49:00.601Z,2.12
2018-07-05T06:51:53.639Z,2.00
2018-07-05T06:54:46.865Z,1.77
2018-07-05T06:57:40.259Z,1.47
2018-07-05T07:00:33.423Z,1.65
2018-07-05T07:03:26.478Z,2.60
2018-07-05T07:06:19.437Z,1.30
2018-07-05T07:09:12.476Z,1.77
2018-07-05T07:12:05.644Z,1.43
2018-07-05T07:14:58.905Z,1.60
2018-07-05T07:17:52.269Z,1.30
2018-07-05T07:20:45.735Z,1.20
2018-07-05T07:23:38.996Z,1.40
2018-07-05T07:26:32.360Z,1.40
2018-07-05T07:29:25.720Z,1.40
2018-07-05T07:32:18.918Z,1.43
2018-07-05T07:35:12.149Z,1.03
2018-07-05T07:38:05.613Z,1.43
2018-07-05T07:40:58.682Z,1.20
2018-07-05T07:43:39.550Z,0.87
2018-07-05T07:46:13.849Z,1.30
2018-07-05T07:48:48.102Z,0.90
2018-07-05T07:51:23.331Z,1.00
2018-07-05T07:53:58.047Z,0.80
2018-07-05T07:56:32.777Z,0.83
2018-07-05T07:59:07.180Z,0.80
2018-07-05T08:01:41.513Z,0.80
2018-07-05T08:04:16.032Z,1.30
2018-07-05T08:06:50.551Z,0.90
2018-07-05T08:09:24.986Z,0.90
2018-07-05T08:11:59.398Z,0.80
2018-07-05T08:14:33.718Z,0.80
2018-07-05T08:17:08.136Z,0.90
2018-07-05T08:19:42.660Z,0.73
2018-07-05T08:22:17.281Z,0.83
2018-07-05T08:24:51.702Z,1.40
2018-07-05T08:27:26.227Z,1.00
2018-07-05T08:30:01.976Z,0.80
2018-07-05T08:32:36.503Z,0.93
2018-07-05T08:35:11.018Z,1.10
2018-07-05T08:37:45.401Z,1.00
2018-07-05T08:40:20.070Z,0.83
2018-07-05T08:42:54.478Z,0.87
2018-07-05T08:45:29.219Z,0.97
2018-07-05T08:48:03.641Z,1.17
2018-07-05T08:50:38.161Z,1.10
2018-07-05T08:53:12.599Z,1.00
2018-07-05T08:55:47.412Z,0.90
2018-07-05T08:58:21.886Z,1.03
2018-07-05T09:00:56.662Z,1.13
2018-07-05T09:03:30.981Z,1.20
2018-07-05T09:06:05.142Z,0.90
2018-07-05T09:08:39.841Z,1.00
2018-07-05T09:11:14.238Z,0.80
2018-07-05T09:13:48.485Z,0.90
2018-07-05T09:16:22.993Z,1.03
2018-07-05T09:18:57.395Z,1.13
2018-07-05T09:21:31.888Z,1.17
2018-07-05T09:24:06.320Z,1.70
2018-07-05T09:26:41.131Z,1.90
2018-07-05T09:29:15.492Z,1.30
2018-07-05T09:31:50.110Z,1.40
2018-07-05T09:34:24.368Z,1.10
2018-07-05T09:36:58.732Z,1.10
2018-07-05T09:39:33.270Z,1.20
2018-07-05T09:42:07.584Z,1.10
2018-07-05T09:44:41.798Z,1.33
2018-07-05T09:47:16.222Z,1.20
2018-07-05T09:49:50.636Z,1.37
2018-07-05T09:52:25.041Z,1.20
2018-07-05T09:54:59.548Z,1.50
2018-07-05T09:57:33.905Z,1.60
2018-07-05T10:00:11.397Z,1.53
2018-07-05T10:02:45.822Z,0.97
2018-07-05T10:05:20.329Z,0.97
2018-07-05T10:07:54.787Z,1.10
2018-07-05T10:10:29.176Z,1.03
2018-07-05T10:13:03.589Z,1.00
2018-07-05T10:15:38.116Z,1.10
2018-07-05T10:18:12.332Z,1.17
2018-07-05T10:20:46.559Z,0.87
2018-07-05T10:23:21.077Z,0.90
2018-07-05T10:25:55.601Z,1.00
2018-07-05T10:28:30.017Z,0.90
2018-07-05T10:31:17.064Z,1.20
2018-07-05T10:33:57.578Z,1.10
2018-07-05T10:36:31.743Z,1.33
2018-07-05T10:39:06.037Z,1.20
2018-07-05T10:41:53.143Z,1.33
2018-07-05T10:44:46.305Z,1.33
2018-07-05T10:47:39.564Z,1.47
2018-07-05T10:50:33.108Z,1.87
2018-07-05T10:53:26.300Z,1.57
2018-07-05T10:56:19.485Z,2.10
2018-07-05T10:59:12.717Z,1.87
2018-07-05T11:02:05.880Z,2.03
2018-07-05T11:04:59.585Z,2.50
2018-07-05T11:07:53.037Z,2.47
2018-07-05T11:10:46.796Z,2.37
2018-07-05T11:13:39.747Z,3.13
2018-07-05T11:16:33.163Z,2.40
2018-07-05T11:19:26.169Z,2.73
2018-07-05T11:22:19.416Z,2.60
2018-07-05T11:25:12.365Z,3.60
2018-07-05T11:28:05.752Z,3.07
2018-07-05T11:30:59.444Z,3.00
2018-07-05T11:33:52.662Z,3.03
2018-07-05T11:36:45.956Z,2.30
2018-07-05T11:39:39.003Z,3.03
2018-07-05T11:42:32.175Z,2.40
2018-07-05T11:45:25.247Z,2.00
2018-07-05T11:48:18.388Z,1.80
2018-07-05T11:51:11.537Z,2.23
2018-07-05T11:54:04.701Z,1.80
2018-07-05T11:56:57.856Z,2.40
2018-07-05T11:59:51.024Z,2.20
2018-07-05T12:02:44.009Z,2.23
2018-07-05T12:05:37.240Z,1.80
2018-07-05T12:08:30.600Z,2.00
2018-07-05T12:11:23.855Z,1.93
2018-07-05T12:14:16.813Z,2.50
2018-07-05T12:17:10.177Z,1.90
2018-07-05T12:20:03.850Z,2.30
2018-07-05T12:22:56.904Z,2.10
2018-07-05T12:25:50.059Z,1.47
2018-07-05T12:28:43.276Z,1.80
2018-07-05T12:31:36.790Z,1.83
2018-07-05T12:34:29.842Z,2.10
2018-07-05T12:37:23.010Z,2.20
2018-07-05T12:40:16.289Z,2.10
2018-07-05T12:43:09.833Z,1.77
2018-07-05T12:46:02.888Z,1.80
2018-07-05T12:48:56.151Z,1.50
2018-07-05T12:51:49.465Z,1.37
2018-07-05T12:54:42.971Z,1.20
2018-07-05T12:57:35.906Z,1.03
2018-07-05T13:00:28.999Z,1.33
2018-07-05T13:03:22.355Z,1.40
2018-07-05T13:06:09.392Z,1.10
2018-07-05T13:09:02.590Z,1.20
2018-07-05T13:11:55.679Z,1.27
2018-07-05T13:14:48.800Z,1.50
2018-07-05T13:17:42.206Z,0.93
2018-07-05T13:20:35.283Z,1.10
2018-07-05T13:23:28.452Z,1.10
2018-07-05T13:26:21.383Z,1.30
2018-07-05T13:29:14.636Z,1.13
2018-07-05T13:32:07.804Z,1.13
2018-07-05T13:35:00.961Z,1.17
2018-07-05T13:37:54.233Z,1.57
2018-07-05T13:40:47.400Z,1.50
2018-07-05T13:43:40.542Z,1.20
2018-07-05T13:46:34.009Z,1.60
2018-07-05T13:49:27.270Z,1.50
2018-07-05T13:52:21.456Z,1.57
2018-07-05T13:55:14.615Z,1.50
2018-07-05T13:58:07.773Z,1.83
2018-07-05T14:01:00.935Z,1.50
2018-07-05T14:03:54.192Z,1.93
2018-07-05T14:06:47.272Z,1.70
2018-07-05T14:09:40.719Z,2.00
2018-07-05T14:12:33.876Z,1.20
2018-07-05T14:15:27.133Z,1.43
2018-07-05T14:18:20.759Z,1.57
2018-07-05T14:21:13.963Z,1.43
2018-07-05T14:24:07.227Z,1.30
2018-07-05T14:27:00.606Z,1.70
2018-07-05T14:29:53.645Z,2.10
2018-07-05T14:32:46.816Z,1.70
2018-07-05T14:35:39.969Z,1.60
2018-07-05T14:38:33.126Z,1.83
2018-07-05T14:41:26.062Z,1.87
2018-07-05T14:44:19.236Z,1.80
2018-07-05T14:47:12.191Z,1.30
2018-07-05T14:50:05.556Z,1.70
2018-07-05T14:52:58.921Z,2.03
2018-07-05T14:55:52.284Z,1.87
2018-07-05T14:58:45.372Z,1.63
2018-07-05T15:01:38.522Z,1.47
2018-07-05T15:04:31.963Z,1.70
2018-07-05T15:07:24.817Z,1.50
2018-07-05T15:10:18.076Z,1.27
2018-07-05T15:13:12.470Z,1.27
2018-07-05T15:16:05.479Z,1.50
2018-07-05T15:18:59.454Z,1.40
2018-07-05T15:21:52.557Z,1.60
2018-07-05T15:24:45.612Z,1.43
2018-07-05T15:27:38.875Z,1.70
2018-07-05T15:30:31.786Z,1.37
2018-07-05T15:33:24.885Z,1.27
2018-07-05T15:36:17.926Z,1.40
2018-07-05T15:42:18.256Z,1.30
2018-07-05T15:45:11.326Z,1.40
2018-07-05T15:48:04.580Z,1.40
2018-07-05T15:50:57.716Z,1.63
2018-07-05T15:53:51.333Z,1.70
2018-07-05T15:56:44.701Z,1.40
2018-07-05T15:59:37.857Z,1.30
2018-07-05T16:02:30.947Z,1.77
2018-07-05T16:05:24.073Z,1.50
2018-07-05T16:08:17.232Z,1.10
2018-07-05T16:11:10.492Z,1.50
2018-07-05T16:14:03.960Z,1.23
2018-07-05T16:16:57.119Z,1.30
2018-07-05T16:19:50.078Z,1.50
2018-07-05T16:22:43.219Z,1.67
2018-07-05T16:25:36.182Z,1.90
2018-07-05T16:28:29.253Z,1.40
2018-07-05T16:31:22.401Z,1.87
2018-07-05T16:34:15.676Z,1.77
2018-07-05T16:37:08.941Z,1.40
2018-07-05T16:40:02.180Z,1.50
2018-07-05T16:42:55.565Z,1.87
2018-07-05T16:45:48.816Z,1.90
2018-07-05T16:48:42.173Z,1.43
2018-07-05T16:51:35.267Z,1.83
2018-07-05T16:54:28.488Z,1.80
2018-07-05T16:57:21.744Z,1.57
2018-07-05T17:00:15.013Z,1.57
2018-07-05T17:03:08.170Z,1.53
2018-07-05T17:06:01.644Z,1.40
2018-07-05T17:08:48.565Z,1.60
2018-07-05T17:11:41.606Z,2.00
2018-07-05T17:14:35.294Z,2.10
2018-07-05T17:17:28.354Z,1.80
2018-07-05T17:20:21.490Z,1.60
2018-07-05T17:23:14.846Z,1.80
2018-07-05T17:26:07.893Z,1.83
2018-07-05T17:29:01.175Z,2.00
2018-07-05T17:31:54.390Z,2.20
2018-07-05T17:34:47.699Z,1.90
2018-07-05T17:37:41.077Z,1.43
2018-07-05T17:40:34.323Z,2.30
2018-07-05T17:43:27.593Z,1.63
2018-07-05T17:46:20.901Z,1.60
2018-07-05T17:49:13.829Z,1.60
2018-07-05T17:52:07.266Z,2.03
2018-07-05T17:55:00.323Z,1.40
2018-07-05T17:57:53.453Z,1.72
2018-07-05T18:00:46.870Z,1.60
2018-07-05T18:03:40.206Z,2.80
2018-07-05T18:06:33.247Z,1.53
2018-07-05T18:09:26.542Z,1.77
2018-07-05T18:12:19.454Z,1.60
2018-07-05T18:15:12.639Z,1.80
2018-07-05T18:18:05.705Z,1.97
2018-07-05T18:20:59.408Z,1.60
2018-07-05T18:23:52.947Z,1.83
2018-07-05T18:26:46.094Z,1.57
2018-07-05T18:29:39.677Z,1.30
2018-07-05T18:32:32.733Z,1.63
2018-07-05T18:35:25.986Z,1.70
2018-07-05T18:38:19.225Z,2.00
2018-07-05T18:41:12.815Z,1.95
2018-07-05T18:44:05.970Z,2.23
2018-07-05T18:46:59.245Z,1.83
2018-07-05T18:49:52.294Z,1.85
2018-07-05T18:52:45.243Z,1.80
2018-07-05T18:55:38.405Z,2.02
2018-07-05T18:58:31.617Z,1.75
2018-07-05T19:01:24.722Z,2.17
2018-07-05T19:04:17.810Z,1.80
2018-07-05T19:07:11.111Z,1.60
2018-07-05T19:10:04.507Z,1.80
2018-07-05T19:12:57.670Z,1.45
2018-07-05T19:15:50.927Z,2.27
2018-07-05T19:18:44.076Z,1.70
2018-07-05T19:21:31.092Z,1.95
2018-07-05T19:24:18.017Z,1.80
2018-07-05T19:27:11.171Z,1.65
2018-07-05T19:30:04.351Z,1.55
2018-07-05T19:32:57.497Z,1.85
2018-07-05T19:35:50.456Z,2.92
2018-07-05T19:38:43.916Z,1.52
2018-07-05T19:41:37.319Z,1.52
2018-07-05T19:44:30.641Z,1.72
2018-07-05T19:47:23.707Z,1.45
2018-07-05T19:50:16.659Z,1.70
2018-07-05T19:53:10.121Z,1.70
2018-07-05T19:56:03.177Z,2.10
2018-07-05T19:58:56.644Z,2.08
2018-07-05T20:01:49.492Z,1.67
2018-07-05T20:04:42.416Z,2.10
2018-07-05T20:07:35.607Z,1.90
2018-07-05T20:10:29.080Z,1.87
2018-07-05T20:13:22.389Z,1.70
2018-07-05T20:16:15.514Z,1.60
2018-07-05T20:19:08.756Z,1.90
2018-07-05T20:22:02.026Z,1.85
2018-07-05T20:24:55.359Z,1.85
2018-07-05T20:27:48.660Z,1.75
2018-07-05T20:30:42.010Z,1.95
2018-07-05T20:33:35.264Z,1.62
2018-07-05T20:36:28.427Z,1.80
2018-07-05T20:39:21.266Z,2.22
2018-07-05T20:42:14.440Z,1.90
2018-07-05T20:45:07.717Z,2.20
2018-07-05T20:48:01.067Z,1.98
2018-07-05T20:50:54.534Z,1.80
2018-07-05T20:53:47.491Z,2.12
2018-07-05T20:56:40.654Z,2.10
2018-07-05T20:59:33.805Z,2.12
2018-07-05T21:02:21.128Z,1.60
2018-07-05T21:05:14.492Z,1.32
2018-07-05T21:08:07.565Z,1.90
2018-07-05T21:11:01.036Z,1.60
2018-07-05T21:13:54.281Z,2.10
2018-07-05T21:16:47.569Z,2.00
2018-07-05T21:19:40.802Z,1.45
2018-07-05T21:22:33.960Z,1.85
2018-07-05T21:25:27.221Z,1.55
2018-07-05T21:28:20.487Z,1.72
2018-07-05T21:31:13.900Z,1.82
2018-07-05T21:34:07.110Z,2.15
2018-07-05T21:37:00.372Z,1.85
2018-07-05T21:39:53.939Z,2.40
2018-07-05T21:42:47.009Z,1.67
2018-07-05T21:45:40.159Z,1.65
2018-07-05T21:48:33.416Z,1.95
2018-07-05T21:51:26.579Z,2.12
2018-07-05T21:54:19.939Z,2.55
2018-07-05T21:57:13.413Z,2.47
2018-07-05T22:00:06.685Z,2.33
2018-07-05T22:02:59.954Z,2.30
2018-07-05T22:05:53.518Z,2.95
2018-07-05T22:08:46.710Z,3.00
2018-07-05T22:11:40.045Z,3.02
2018-07-05T22:14:33.308Z,2.98
2018-07-05T22:17:31.689Z,3.55
2018-07-05T22:20:30.474Z,3.10
2018-07-05T22:23:28.961Z,3.80
2018-07-05T22:26:27.547Z,3.30
2018-07-05T22:29:25.843Z,2.80
2018-07-05T22:32:19.217Z,3.10
2018-07-05T22:35:12.479Z,3.20
2018-07-05T22:38:05.754Z,3.17
2018-07-05T22:40:58.926Z,3.60
2018-07-05T22:43:53.167Z,3.05
2018-07-05T22:46:46.584Z,3.37
2018-07-05T22:49:39.666Z,3.47
2018-07-05T22:52:32.804Z,3.65
2018-07-05T22:55:26.063Z,3.55
2018-07-05T22:58:19.326Z,4.30
2018-07-05T23:01:12.841Z,3.85
2018-07-05T23:04:05.990Z,3.50
2018-07-05T23:06:59.175Z,3.47
2018-07-05T23:09:52.441Z,3.20
2018-07-05T23:12:45.611Z,3.37
2018-07-05T23:15:39.081Z,3.58
2018-07-05T23:18:32.356Z,3.40
2018-07-05T23:21:25.630Z,4.28
2018-07-05T23:24:18.698Z,3.52
2018-07-05T23:27:11.867Z,3.17
2018-07-05T23:30:05.137Z,3.58
2018-07-05T23:32:58.514Z,3.52
2018-07-05T23:35:51.784Z,3.90
2018-07-05T23:38:44.979Z,4.08
2018-07-05T23:41:38.018Z,3.60
2018-07-05T23:44:31.637Z,3.27
2018-07-05T23:47:24.949Z,3.30
2018-07-05T23:50:18.399Z,3.67
2018-07-05T23:53:11.579Z,3.92
2018-07-05T23:56:04.764Z,3.72
2018-07-05T23:58:51.999Z,4.03
